28°F Temp
16°F Dewpoint
59% Humidity
Temperature
3 MPH
5 KM/H
3 KTS
160°
South South
East

Wind Speed
Partly Cloudy
Conditions
Pressure 1011.8 (hPa) - 29.88 (in)
Visibility 10.0 (mi) - 16.1 (km)

Current Conditions
KAPA
Location Centennial 6km (3.2mi)
Metar :KAPA 190553Z 16003KT 10SM FEW120 SCT220 M02/M09 A2988 RMK AO2 SLP118 T10171089 10083 21022 58005
Tue 18th December 22:53 pm

Airport
  Metar Aviation API Data Provided by https://www.checkwx.com/ CSS/SVG/PHP scripts by weather34.com © 2015-2018